Time;durP1;ratioP1;P1;durP2;ratioP2;P2;SDS_P1;SDS_P2;PMS_P1;PMS_P2;Temp;Humidity;BMP_temperature;BMP_pressure;BME280_temperature;BME280_humidity;BME280_pressure;Samples;Min_cycle;Max_cycle;Signal;HPM_P1;HPM_P2
2022/06/18 00:01:33;;;;;;;2.58;1.95;;;26.60;95.90;;;;;;4236996;27;20217;-77
2022/06/18 00:03:35;;;;;;;2.17;1.98;;;26.50;95.90;;;;;;4228487;28;20316;-76
2022/06/18 00:05:38;;;;;;;2.10;1.90;;;26.50;96.00;;;;;;4235424;27;20214;-76
2022/06/18 00:07:46;;;;;;;3.10;2.30;;;26.60;96.00;;;;;;4231428;27;20244;-76
2022/06/18 00:09:57;;;;;;;2.75;2.10;;;26.50;96.00;;;;;;4230192;28;20278;-77
2022/06/18 00:14:22;;;;;;;2.33;2.13;;;26.50;96.10;;;;;;4209808;28;20325;-76
2022/06/18 00:16:24;;;;;;;2.42;2.08;;;26.50;96.10;;;;;;4211402;28;20924;-77
2022/06/18 00:18:27;;;;;;;2.08;1.73;;;26.50;96.30;;;;;;4209112;28;20580;-77
2022/06/18 00:20:34;;;;;;;3.47;2.30;;;26.50;96.30;;;;;;4211245;28;20729;-77
2022/06/18 00:22:36;;;;;;;3.55;2.13;;;26.50;96.30;;;;;;4209826;28;20271;-76
2022/06/18 00:24:40;;;;;;;2.28;2.08;;;26.50;96.30;;;;;;4211425;28;20226;-77
2022/06/18 00:26:42;;;;;;;2.33;2.00;;;26.50;96.40;;;;;;4211529;28;20259;-76
2022/06/18 00:28:45;;;;;;;2.25;1.90;;;26.50;96.30;;;;;;4210812;28;20218;-77
2022/06/18 00:30:47;;;;;;;2.08;1.85;;;26.50;96.40;;;;;;4209885;28;20329;-76
2022/06/18 00:32:50;;;;;;;2.42;1.90;;;26.50;96.40;;;;;;4209692;28;20275;-76
2022/06/18 00:34:54;;;;;;;2.58;1.90;;;26.50;96.50;;;;;;4212624;28;20218;-76
2022/06/18 00:36:58;;;;;;;2.33;2.10;;;26.50;96.50;;;;;;4212447;28;20263;-76
2022/06/18 00:39:00;;;;;;;3.33;2.10;;;26.40;96.50;;;;;;4213659;28;20686;-76
2022/06/18 00:41:06;;;;;;;2.38;2.17;;;26.40;96.40;;;;;;4213329;28;20214;-76
2022/06/18 00:43:19;;;;;;;2.83;2.35;;;26.40;96.50;;;;;;4211495;28;20222;-77
2022/06/18 00:45:26;;;;;;;2.03;1.70;;;26.40;96.60;;;;;;4213250;28;20222;-76
2022/06/18 00:47:34;;;;;;;2.42;2.00;;;26.40;96.70;;;;;;4209619;28;20627;-76
2022/06/18 00:49:43;;;;;;;2.20;1.85;;;26.40;96.70;;;;;;4211894;28;20669;-76
2022/06/18 00:51:50;;;;;;;2.67;2.30;;;26.40;96.80;;;;;;4212278;28;20234;-76
2022/06/18 00:53:56;;;;;;;2.47;2.15;;;26.40;96.80;;;;;;4211891;28;20222;-76
2022/06/18 00:56:05;;;;;;;3.45;2.10;;;26.40;96.80;;;;;;4213292;28;20260;-76
2022/06/18 00:58:13;;;;;;;2.35;2.05;;;26.40;96.80;;;;;;4212331;28;20210;-76
2022/06/18 01:00:20;;;;;;;2.00;1.80;;;26.40;96.80;;;;;;4213249;28;20214;-76
2022/06/18 01:02:27;;;;;;;4.72;2.03;;;26.40;96.80;;;;;;4211345;28;20214;-76
2022/06/18 01:04:32;;;;;;;2.10;1.90;;;26.40;96.90;;;;;;4211596;28;20654;-76
2022/06/18 01:06:35;;;;;;;2.22;2.00;;;26.40;96.90;;;;;;4212882;28;20210;-76
2022/06/18 01:08:39;;;;;;;2.78;2.05;;;26.40;97.00;;;;;;4211786;28;20271;-77
2022/06/18 01:10:46;;;;;;;2.67;2.47;;;26.30;97.00;;;;;;4215439;28;20279;-76
2022/06/18 01:12:49;;;;;;;2.03;1.90;;;26.40;97.10;;;;;;4228356;27;20217;-76
2022/06/18 01:15:01;;;;;;;2.97;2.30;;;26.30;97.00;;;;;;4229536;28;20306;-76
2022/06/18 01:17:06;;;;;;;2.85;2.13;;;26.30;97.00;;;;;;4229194;28;20282;-76
2022/06/18 01:19:18;;;;;;;2.60;2.03;;;26.30;97.10;;;;;;4228810;27;20218;-76
2022/06/18 01:21:30;;;;;;;2.35;1.92;;;26.40;97.10;;;;;;4226264;28;20226;-76
2022/06/18 01:23:37;;;;;;;3.63;2.05;;;26.30;97.10;;;;;;4228713;28;20222;-76
2022/06/18 01:25:41;;;;;;;2.13;1.92;;;26.30;97.10;;;;;;4228750;27;20267;-76
2022/06/18 01:27:43;;;;;;;3.80;2.20;;;26.30;97.20;;;;;;4229149;27;20658;-76
2022/06/18 01:29:46;;;;;;;2.88;2.20;;;26.30;97.20;;;;;;4230310;27;20210;-76
2022/06/18 01:31:48;;;;;;;2.75;2.05;;;26.30;97.20;;;;;;4230851;27;20221;-76
2022/06/18 01:33:51;;;;;;;2.17;1.98;;;26.30;97.40;;;;;;4226265;27;20218;-76
2022/06/18 01:35:55;;;;;;;2.17;1.98;;;26.30;97.40;;;;;;4228511;28;20210;-76
2022/06/18 01:37:58;;;;;;;2.85;2.47;;;26.30;97.40;;;;;;4228845;28;20243;-76
2022/06/18 01:40:01;;;;;;;2.72;2.35;;;26.20;97.30;;;;;;4227805;28;20232;-76
2022/06/18 01:42:10;;;;;;;3.35;2.10;;;26.20;97.40;;;;;;4228650;28;20262;-76
2022/06/18 01:44:17;;;;;;;2.42;2.22;;;26.30;97.40;;;;;;4224735;28;20258;-76
2022/06/18 01:46:19;;;;;;;2.72;2.17;;;26.20;97.40;;;;;;4231035;27;20540;-76
2022/06/18 01:48:26;;;;;;;2.30;2.10;;;26.30;97.60;;;;;;4229936;27;20632;-76
2022/06/18 01:50:34;;;;;;;2.90;2.30;;;26.20;97.50;;;;;;4225353;28;20274;-76
2022/06/18 01:52:41;;;;;;;3.05;2.15;;;26.20;97.60;;;;;;4226711;28;20313;-76
2022/06/18 01:54:48;;;;;;;2.22;1.85;;;26.20;97.60;;;;;;4228613;27;20269;-76
2022/06/18 01:56:55;;;;;;;3.00;2.67;;;26.20;98.00;;;;;;4227594;28;20214;-76
2022/06/18 01:59:02;;;;;;;2.35;1.90;;;26.20;97.70;;;;;;4228145;28;20283;-76
2022/06/18 02:01:09;;;;;;;2.78;2.30;;;26.20;97.70;;;;;;4227663;28;20217;-76
2022/06/18 02:03:13;;;;;;;2.42;2.20;;;26.20;97.70;;;;;;4228521;28;20289;-76
2022/06/18 02:05:16;;;;;;;2.35;2.03;;;26.20;97.70;;;;;;4227573;27;20564;-76
2022/06/18 02:07:19;;;;;;;2.20;2.00;;;26.20;97.80;;;;;;4227392;28;20237;-76
2022/06/18 02:09:35;;;;;;;2.33;2.13;;;26.20;97.80;;;;;;4226614;28;20286;-76
2022/06/18 02:11:38;;;;;;;2.78;2.08;;;26.20;97.80;;;;;;4226966;28;20750;-76
2022/06/18 02:13:54;;;;;;;2.47;2.20;;;26.20;97.80;;;;;;4226911;28;20210;-77
2022/06/18 02:15:59;;;;;;;2.90;2.58;;;26.20;97.90;;;;;;4226362;28;20263;-76
2022/06/18 02:18:06;;;;;;;2.30;2.05;;;26.20;97.70;;;;;;4226586;27;20291;-76
2022/06/18 02:20:15;;;;;;;2.25;2.05;;;26.20;97.90;;;;;;4227617;28;20213;-76
2022/06/18 02:22:20;;;;;;;2.95;2.33;;;26.20;98.00;;;;;;4228131;28;20270;-76
2022/06/18 02:24:23;;;;;;;2.97;2.40;;;26.20;98.00;;;;;;4228459;27;20731;-76
2022/06/18 02:26:28;;;;;;;2.58;2.30;;;26.20;98.00;;;;;;4230097;27;20217;-76
2022/06/18 02:28:34;;;;;;;2.33;2.13;;;26.20;98.00;;;;;;4225250;28;20222;-76
2022/06/18 02:30:37;;;;;;;2.53;1.92;;;26.20;98.00;;;;;;4227154;28;20243;-76
2022/06/18 02:32:49;;;;;;;2.67;2.28;;;26.20;98.10;;;;;;4229083;27;20237;-77
2022/06/18 02:34:51;;;;;;;3.42;2.17;;;26.20;98.10;;;;;;4226209;28;20218;-76
2022/06/18 02:36:53;;;;;;;2.55;2.35;;;26.10;98.10;;;;;;4228162;28;20222;-77
2022/06/18 02:38:59;;;;;;;2.38;2.03;;;26.20;98.20;;;;;;4228201;27;20214;-76
2022/06/18 02:41:01;;;;;;;2.58;2.25;;;26.20;98.20;;;;;;4227961;27;20230;-76
2022/06/18 02:43:03;;;;;;;3.63;2.28;;;26.20;98.20;;;;;;4227725;27;20715;-77
2022/06/18 02:45:07;;;;;;;2.83;2.55;;;26.20;98.30;;;;;;4228237;27;20274;-76
2022/06/18 02:47:11;;;;;;;3.17;2.20;;;26.10;98.20;;;;;;4228053;27;20267;-76
2022/06/18 02:49:16;;;;;;;2.97;2.28;;;26.10;98.20;;;;;;4226645;28;20631;-76
2022/06/18 02:51:18;;;;;;;2.38;2.17;;;26.10;98.30;;;;;;4223847;28;20218;-76
2022/06/18 02:53:20;;;;;;;2.65;2.08;;;26.10;98.30;;;;;;4226541;28;20310;-76
2022/06/18 02:55:30;;;;;;;3.40;2.55;;;26.10;98.30;;;;;;4227606;27;20221;-76
2022/06/18 02:57:32;;;;;;;2.30;2.08;;;26.10;98.30;;;;;;4225949;28;20226;-76
2022/06/18 02:59:35;;;;;;;3.03;2.17;;;26.10;98.30;;;;;;4227617;28;20228;-76
2022/06/18 03:01:37;;;;;;;2.45;2.25;;;26.10;98.40;;;;;;4228101;28;20591;-76
2022/06/18 03:03:42;;;;;;;2.63;2.22;;;26.10;98.40;;;;;;4228643;27;20290;-76
2022/06/18 03:05:46;;;;;;;2.60;2.40;;;26.10;98.50;;;;;;4227321;27;20214;-76
2022/06/18 03:07:48;;;;;;;3.00;2.25;;;26.10;98.40;;;;;;4226319;28;20214;-76
2022/06/18 03:12:10;;;;;;;2.15;1.95;;;26.10;98.50;;;;;;4226682;28;21018;-76
2022/06/18 03:14:15;;;;;;;2.90;2.20;;;26.10;98.50;;;;;;4227822;28;20210;-76
2022/06/18 03:16:21;;;;;;;2.75;2.40;;;26.00;98.50;;;;;;4226992;28;20210;-77
2022/06/18 03:18:26;;;;;;;2.78;2.50;;;26.10;98.50;;;;;;4226862;28;20218;-76
2022/06/18 03:20:47;;;;;;;2.30;2.10;;;26.00;98.50;;;;;;4223987;28;20222;-76
2022/06/18 03:22:51;;;;;;;3.60;2.35;;;26.00;98.50;;;;;;4225513;28;20259;-76
2022/06/18 03:24:53;;;;;;;2.30;2.10;;;26.00;98.50;;;;;;4225205;28;20218;-76
2022/06/18 03:26:55;;;;;;;2.42;2.13;;;26.10;98.60;;;;;;4226791;28;20746;-76
2022/06/18 03:28:58;;;;;;;4.13;2.50;;;26.00;98.60;;;;;;4227761;27;20226;-77
2022/06/18 03:31:01;;;;;;;2.75;2.45;;;26.00;98.60;;;;;;4228784;27;20266;-76
2022/06/18 03:33:03;;;;;;;2.47;2.22;;;26.00;98.60;;;;;;4226461;28;20245;-76
2022/06/18 03:35:06;;;;;;;3.80;2.17;;;26.00;98.60;;;;;;4226384;28;20230;-76
2022/06/18 03:37:08;;;;;;;2.35;2.15;;;26.00;98.70;;;;;;4225014;28;20286;-76
2022/06/18 03:39:12;;;;;;;2.47;2.28;;;26.00;98.70;;;;;;4226577;28;20723;-76
2022/06/18 03:41:15;;;;;;;2.33;2.10;;;26.00;98.70;;;;;;4227458;28;20225;-76
2022/06/18 03:43:18;;;;;;;2.35;2.13;;;26.00;98.80;;;;;;4226284;28;20319;-76
2022/06/18 03:45:21;;;;;;;2.60;2.30;;;26.00;98.70;;;;;;4226116;27;20251;-76
2022/06/18 03:47:24;;;;;;;4.60;2.17;;;26.00;98.70;;;;;;4227166;28;20226;-77
2022/06/18 03:49:29;;;;;;;2.72;2.33;;;26.00;98.80;;;;;;4225980;27;20275;-76
2022/06/18 03:51:31;;;;;;;3.05;2.50;;;26.00;98.80;;;;;;4226217;28;20213;-76
2022/06/18 03:53:34;;;;;;;2.47;2.28;;;26.00;98.80;;;;;;4223954;27;20613;-76
2022/06/18 03:55:38;;;;;;;2.97;2.13;;;26.00;98.90;;;;;;4229381;27;20239;-76
2022/06/18 03:57:41;;;;;;;3.80;2.50;;;26.00;98.90;;;;;;4227416;27;21274;-76
2022/06/18 03:59:43;;;;;;;2.67;2.30;;;26.00;98.80;;;;;;4224245;28;20604;-76
2022/06/18 04:01:45;;;;;;;2.47;2.15;;;26.00;98.90;;;;;;4226482;28;20206;-76
2022/06/18 04:03:48;;;;;;;2.45;2.25;;;25.90;98.90;;;;;;4226247;28;20214;-76
2022/06/18 04:05:50;;;;;;;3.65;2.40;;;25.90;99.00;;;;;;4225482;28;20283;-76
2022/06/18 04:07:52;;;;;;;2.22;2.03;;;25.90;99.00;;;;;;4228463;27;20209;-76
2022/06/18 04:09:56;;;;;;;2.80;2.20;;;25.90;99.00;;;;;;4227307;28;20209;-76
2022/06/18 04:12:00;;;;;;;3.15;2.45;;;25.90;99.00;;;;;;4214737;27;20615;-76
2022/06/18 04:14:03;;;;;;;2.50;2.30;;;26.00;99.00;;;;;;4210672;28;20222;-76
2022/06/18 04:16:06;;;;;;;2.83;2.50;;;25.90;99.00;;;;;;4207016;28;20210;-76
2022/06/18 04:18:10;;;;;;;5.50;2.40;;;25.90;99.10;;;;;;4209983;28;20230;-76
2022/06/18 04:20:20;;;;;;;3.08;2.40;;;25.90;99.00;;;;;;4210608;28;20223;-76
2022/06/18 04:22:22;;;;;;;2.45;2.22;;;25.90;99.10;;;;;;4209934;28;20283;-77
2022/06/18 04:24:25;;;;;;;2.47;2.22;;;25.90;99.10;;;;;;4207318;28;20263;-76
2022/06/18 04:26:27;;;;;;;2.67;2.30;;;25.90;99.10;;;;;;4211667;28;20210;-76
2022/06/18 04:28:31;;;;;;;3.00;2.38;;;25.90;99.20;;;;;;4208977;28;20264;-76
2022/06/18 04:30:34;;;;;;;2.50;2.30;;;25.90;99.20;;;;;;4209639;28;20651;-76
2022/06/18 04:32:37;;;;;;;4.70;2.47;;;25.90;99.20;;;;;;4209684;28;20210;-77
2022/06/18 04:34:39;;;;;;;2.30;2.10;;;25.90;99.20;;;;;;4209477;28;20214;-76
2022/06/18 04:36:42;;;;;;;2.53;2.33;;;25.90;99.20;;;;;;4210418;28;20222;-76
2022/06/18 04:38:44;;;;;;;3.13;2.20;;;25.90;99.20;;;;;;4210421;28;20291;-76
2022/06/18 04:40:47;;;;;;;2.22;2.00;;;25.90;99.30;;;;;;4210144;28;20554;-77
2022/06/18 04:42:49;;;;;;;2.50;2.30;;;25.90;99.70;;;;;;4210226;28;20223;-76
2022/06/18 04:44:53;;;;;;;4.18;2.58;;;25.90;99.30;;;;;;4209930;28;20275;-76
2022/06/18 04:46:56;;;;;;;2.67;2.25;;;25.90;99.30;;;;;;4210300;28;20720;-76
2022/06/18 04:48:58;;;;;;;2.80;2.45;;;25.90;99.30;;;;;;4209602;28;20214;-76
2022/06/18 04:51:00;;;;;;;2.47;2.05;;;25.90;99.30;;;;;;4208169;28;20227;-76
2022/06/18 04:53:03;;;;;;;3.63;2.25;;;25.90;99.30;;;;;;4209556;28;20238;-76
2022/06/18 04:55:06;;;;;;;4.00;2.45;;;25.90;99.40;;;;;;4210160;28;20226;-76
2022/06/18 04:57:09;;;;;;;2.35;2.15;;;25.90;99.40;;;;;;4209852;28;20223;-76
2022/06/18 04:59:12;;;;;;;3.10;2.38;;;25.90;99.40;;;;;;4209617;28;20214;-76
2022/06/18 05:01:18;;;;;;;2.70;1.95;;;25.90;99.40;;;;;;4209684;28;20292;-77
2022/06/18 05:03:22;;;;;;;3.80;2.45;;;25.90;99.40;;;;;;4208480;28;20280;-77
2022/06/18 05:05:26;;;;;;;3.15;2.17;;;25.90;99.40;;;;;;4209757;28;20288;-77
2022/06/18 05:07:28;;;;;;;3.20;2.40;;;25.90;99.50;;;;;;4208181;28;20614;-76
2022/06/18 05:09:30;;;;;;;2.60;2.40;;;25.90;99.50;;;;;;4209585;28;20219;-76
2022/06/18 05:11:33;;;;;;;4.55;2.50;;;25.90;99.50;;;;;;4222570;28;20230;-77
2022/06/18 05:13:35;;;;;;;2.90;2.60;;;25.90;99.50;;;;;;4230888;28;20304;-76
2022/06/18 05:15:40;;;;;;;3.42;2.55;;;25.90;99.60;;;;;;4231449;28;20218;-76
2022/06/18 05:17:45;;;;;;;2.95;2.50;;;25.90;99.60;;;;;;4230282;28;20210;-76
2022/06/18 05:19:48;;;;;;;2.80;2.33;;;25.90;99.60;;;;;;4233171;27;20259;-76
2022/06/18 05:21:50;;;;;;;2.55;2.10;;;25.90;99.70;;;;;;4238091;27;20621;-77
2022/06/18 05:23:52;;;;;;;2.50;2.30;;;25.90;99.70;;;;;;4233952;27;20206;-76
2022/06/18 05:25:57;;;;;;;3.08;2.50;;;25.90;99.70;;;;;;4237340;27;20277;-77
2022/06/18 05:27:59;;;;;;;3.03;2.20;;;25.90;99.70;;;;;;4237903;27;20209;-76
2022/06/18 05:30:02;;;;;;;2.55;2.17;;;25.90;99.70;;;;;;4238116;27;20270;-76
2022/06/18 05:32:05;;;;;;;2.72;2.30;;;25.90;99.70;;;;;;4237664;27;20218;-77
2022/06/18 05:34:09;;;;;;;2.53;2.17;;;25.90;99.70;;;;;;4235024;27;20287;-76
2022/06/18 05:36:19;;;;;;;2.30;2.10;;;25.90;99.70;;;;;;4234221;27;20213;-77
2022/06/18 05:38:24;;;;;;;2.38;2.05;;;25.90;99.70;;;;;;4234958;27;20213;-77
2022/06/18 05:40:26;;;;;;;4.45;2.20;;;25.90;99.70;;;;;;4236114;27;20259;-76
2022/06/18 05:42:28;;;;;;;3.50;2.47;;;25.90;99.70;;;;;;4235096;27;20221;-76
2022/06/18 05:44:31;;;;;;;2.20;1.95;;;25.90;99.70;;;;;;4236890;27;20213;-77
2022/06/18 05:46:33;;;;;;;2.83;2.40;;;25.90;99.70;;;;;;4234249;27;20732;-77
2022/06/18 05:48:36;;;;;;;4.72;2.40;;;25.90;99.80;;;;;;4237051;27;20226;-77
2022/06/18 05:50:40;;;;;;;2.58;2.33;;;25.90;99.80;;;;;;4235794;27;20263;-77
2022/06/18 05:52:42;;;;;;;3.10;2.53;;;25.90;99.70;;;;;;4237036;27;20217;-77
2022/06/18 05:54:46;;;;;;;2.60;2.40;;;25.90;99.80;;;;;;4232680;27;20237;-77
2022/06/18 05:56:48;;;;;;;2.65;2.42;;;25.90;99.80;;;;;;4234865;27;20258;-76
2022/06/18 05:58:50;;;;;;;2.80;2.25;;;25.90;99.80;;;;;;4232254;27;20213;-76
2022/06/18 06:00:53;;;;;;;2.20;2.00;;;25.90;99.90;;;;;;4233089;27;20259;-76
2022/06/18 06:02:56;;;;;;;2.50;2.08;;;25.90;99.80;;;;;;4234495;27;20218;-77
2022/06/18 06:04:58;;;;;;;2.17;1.98;;;25.90;99.80;;;;;;4234421;27;20206;-76
2022/06/18 06:07:02;;;;;;;2.72;2.08;;;25.90;99.90;;;;;;4234638;27;20225;-77
2022/06/18 06:09:05;;;;;;;3.28;2.38;;;25.90;99.80;;;;;;4235216;27;20622;-76
2022/06/18 06:13:29;;;;;;;2.40;2.20;;;25.90;99.90;;;;;;4221998;28;20930;-76
2022/06/18 06:15:31;;;;;;;3.97;2.20;;;25.90;99.90;;;;;;4223571;28;20214;-76
2022/06/18 06:17:34;;;;;;;2.42;2.22;;;25.90;99.90;;;;;;4223563;28;20554;-77
2022/06/18 06:19:37;;;;;;;2.88;2.53;;;25.90;99.90;;;;;;4221794;28;21641;-77
2022/06/18 06:21:39;;;;;;;3.45;2.33;;;25.90;99.90;;;;;;4213982;28;20275;-76
2022/06/18 06:23:42;;;;;;;3.05;2.38;;;25.90;99.90;;;;;;4220108;27;20346;-77
2022/06/18 06:25:46;;;;;;;2.80;2.38;;;25.90;99.90;;;;;;4224853;27;20214;-77
2022/06/18 06:27:48;;;;;;;3.28;2.20;;;25.90;99.90;;;;;;4216669;28;20586;-76
2022/06/18 06:29:51;;;;;;;2.58;2.38;;;25.90;99.90;;;;;;4224344;27;20640;-76
2022/06/18 06:31:53;;;;;;;2.47;2.28;;;25.90;99.90;;;;;;4227659;27;20650;-76
2022/06/18 06:33:55;;;;;;;2.83;2.30;;;25.90;99.90;;;;;;4224580;28;20237;-77
2022/06/18 06:35:57;;;;;;;4.22;2.30;;;25.90;99.90;;;;;;4230223;27;20210;-77
2022/06/18 06:38:01;;;;;;;3.80;2.58;;;25.90;99.90;;;;;;4231625;27;20282;-77
2022/06/18 06:40:07;;;;;;;2.90;2.55;;;25.90;99.90;;;;;;4233610;27;20209;-76
2022/06/18 06:42:10;;;;;;;4.03;2.72;;;26.00;99.90;;;;;;4231765;27;20236;-76
2022/06/18 06:44:13;;;;;;;2.95;2.28;;;25.90;99.90;;;;;;4223218;28;20210;-76
2022/06/18 06:46:16;;;;;;;3.55;2.63;;;25.90;99.90;;;;;;4227045;28;20242;-76
2022/06/18 06:48:19;;;;;;;3.33;2.60;;;25.90;99.90;;;;;;4226764;28;20209;-76
2022/06/18 06:50:22;;;;;;;2.50;2.20;;;25.90;99.90;;;;;;4217664;28;20267;-77
2022/06/18 06:52:25;;;;;;;2.95;2.40;;;25.90;99.90;;;;;;4226671;28;20230;-76
2022/06/18 06:54:27;;;;;;;2.63;2.40;;;25.90;99.90;;;;;;4222773;28;20245;-77
2022/06/18 06:58:53;;;;;;;2.70;2.40;;;25.90;99.90;;;;;;4207901;28;20274;-77
2022/06/18 07:00:57;;;;;;;4.63;2.70;;;25.90;99.90;;;;;;4220309;28;20263;-76
2022/06/18 07:02:59;;;;;;;3.97;2.60;;;25.90;99.90;;;;;;4220156;28;20240;-77
2022/06/18 07:05:02;;;;;;;2.80;2.35;;;25.90;99.90;;;;;;4223692;27;20248;-76
2022/06/18 07:07:05;;;;;;;3.25;2.40;;;25.90;99.90;;;;;;4226233;27;20225;-76
2022/06/18 07:09:08;;;;;;;4.10;2.50;;;25.90;99.90;;;;;;4219557;28;20611;-76
2022/06/18 07:11:11;;;;;;;3.95;2.63;;;25.90;99.90;;;;;;4219166;28;20298;-76
2022/06/18 07:13:14;;;;;;;2.88;2.50;;;25.90;99.90;;;;;;4222893;28;20267;-76
2022/06/18 07:15:17;;;;;;;2.90;2.60;;;25.90;99.90;;;;;;4221901;27;20378;-76
2022/06/18 07:17:20;;;;;;;2.42;2.20;;;25.90;99.90;;;;;;4216291;28;20259;-76
2022/06/18 07:19:22;;;;;;;3.35;2.40;;;25.90;99.90;;;;;;4218773;27;20213;-76
2022/06/18 07:21:25;;;;;;;2.42;2.22;;;26.00;99.90;;;;;;4219431;28;20531;-77
2022/06/18 07:23:27;;;;;;;2.90;2.20;;;25.90;99.90;;;;;;4219839;28;20263;-76
2022/06/18 07:25:29;;;;;;;2.85;2.22;;;25.90;99.90;;;;;;4223922;27;20259;-77
2022/06/18 07:27:32;;;;;;;2.75;2.53;;;25.90;99.90;;;;;;4225960;27;20272;-77
2022/06/18 07:29:36;;;;;;;2.97;2.42;;;26.00;99.90;;;;;;4220661;28;20620;-77
2022/06/18 07:31:38;;;;;;;2.35;2.15;;;25.90;99.90;;;;;;4219275;28;20559;-76
2022/06/18 07:33:41;;;;;;;3.00;2.70;;;25.90;99.90;;;;;;4229853;27;20262;-76
2022/06/18 07:35:43;;;;;;;4.30;2.78;;;25.90;99.90;;;;;;4228675;27;20238;-77
2022/06/18 07:37:46;;;;;;;2.15;1.95;;;26.00;99.90;;;;;;4219981;28;20221;-76
2022/06/18 07:39:49;;;;;;;4.13;2.60;;;26.00;99.90;;;;;;4221448;27;20214;-76
2022/06/18 07:41:54;;;;;;;2.97;2.55;;;26.00;99.90;;;;;;4223569;28;20205;-76
2022/06/18 07:43:58;;;;;;;6.78;2.70;;;25.90;99.90;;;;;;4225172;28;20345;-77
2022/06/18 07:46:03;;;;;;;4.68;2.45;;;26.00;99.90;;;;;;4226369;28;20566;-77
2022/06/18 07:48:06;;;;;;;3.50;2.58;;;26.00;99.90;;;;;;4226123;28;20214;-77
2022/06/18 07:50:09;;;;;;;4.80;2.40;;;26.00;99.80;;;;;;4225127;28;20287;-77
2022/06/18 07:52:13;;;;;;;3.10;2.30;;;26.00;99.90;;;;;;4224937;28;20259;-77
2022/06/18 07:54:18;;;;;;;2.92;2.40;;;26.00;99.90;;;;;;4225745;27;20218;-77
2022/06/18 07:56:21;;;;;;;2.70;2.30;;;26.00;99.70;;;;;;4222498;28;20236;-77
2022/06/18 07:58:23;;;;;;;3.38;2.78;;;26.00;99.70;;;;;;4224266;28;20666;-76
2022/06/18 08:00:25;;;;;;;2.53;2.15;;;26.00;99.70;;;;;;4223442;28;20222;-77
2022/06/18 08:02:29;;;;;;;3.28;2.40;;;26.00;99.90;;;;;;4228295;27;20613;-77
2022/06/18 08:04:31;;;;;;;2.60;2.15;;;26.00;99.80;;;;;;4214489;28;20219;-77
2022/06/18 08:06:34;;;;;;;4.60;2.33;;;26.00;99.80;;;;;;4211568;28;20617;-76
2022/06/18 08:08:37;;;;;;;3.28;2.53;;;26.00;99.70;;;;;;4216158;28;20266;-76
2022/06/18 08:10:39;;;;;;;2.83;2.40;;;26.00;99.70;;;;;;4217523;28;20298;-76
2022/06/18 08:12:42;;;;;;;3.17;2.28;;;26.00;99.80;;;;;;4219674;28;20746;-77
2022/06/18 08:14:44;;;;;;;3.90;2.80;;;26.00;99.70;;;;;;4223665;28;20263;-76
2022/06/18 08:16:46;;;;;;;3.97;2.50;;;26.00;99.70;;;;;;4221327;28;20218;-76
2022/06/18 08:18:50;;;;;;;3.25;2.47;;;26.00;99.60;;;;;;4225419;28;20263;-76
2022/06/18 08:20:53;;;;;;;2.88;2.35;;;26.00;99.70;;;;;;4227277;28;20848;-76
2022/06/18 08:22:57;;;;;;;3.33;2.50;;;26.00;99.70;;;;;;4226298;28;20222;-77
2022/06/18 08:25:01;;;;;;;2.72;2.20;;;26.10;99.80;;;;;;4225640;28;20259;-76
2022/06/18 08:27:03;;;;;;;4.70;2.72;;;26.00;99.60;;;;;;4225541;28;20255;-76
2022/06/18 08:29:11;;;;;;;5.28;2.60;;;26.00;99.60;;;;;;4226423;28;20225;-76
2022/06/18 08:31:13;;;;;;;4.43;2.30;;;26.10;99.70;;;;;;4225894;28;20286;-76
2022/06/18 08:33:17;;;;;;;2.65;2.28;;;26.00;99.60;;;;;;4226830;28;20661;-77
2022/06/18 08:35:20;;;;;;;3.08;2.25;;;26.10;99.60;;;;;;4224102;28;20242;-77
2022/06/18 08:37:23;;;;;;;3.35;2.40;;;26.10;99.70;;;;;;4223549;28;20226;-77
2022/06/18 08:39:25;;;;;;;3.85;2.60;;;26.10;99.60;;;;;;4222593;28;20230;-77
2022/06/18 08:41:41;;;;;;;4.30;2.47;;;26.10;99.60;;;;;;4228599;28;20210;-76
2022/06/18 08:44:18;;;;;;;4.10;2.28;;;26.10;99.60;;;;;;4229923;28;20255;-76
2022/06/18 08:46:31;;;;;;;4.07;2.60;;;26.10;99.60;;;;;;4227500;28;20254;-77
2022/06/18 08:48:52;;;;;;;2.92;2.63;;;26.10;99.70;;;;;;4220667;28;20852;-76
2022/06/18 08:51:07;;;;;;;4.50;2.83;;;26.10;99.60;;;;;;4218631;28;20215;-76
2022/06/18 08:53:32;;;;;;;3.17;2.55;;;26.10;99.80;;;;;;4221218;28;20263;-76
2022/06/18 08:55:43;;;;;;;2.88;2.55;;;26.20;99.80;;;;;;4219807;28;20259;-76
2022/06/18 08:57:55;;;;;;;3.17;2.35;;;26.10;99.70;;;;;;4230067;27;20255;-77
2022/06/18 09:00:08;;;;;;;4.03;2.63;;;26.10;99.90;;;;;;4222191;28;20267;-76
2022/06/18 09:02:22;;;;;;;3.38;2.60;;;26.10;99.90;;;;;;4221432;28;21043;-77
2022/06/18 09:04:34;;;;;;;3.17;2.42;;;26.10;99.70;;;;;;4221044;28;20210;-76
2022/06/18 09:06:55;;;;;;;3.75;2.70;;;26.10;99.80;;;;;;4220764;28;20226;-79
2022/06/18 09:09:04;;;;;;;3.13;2.65;;;26.10;99.90;;;;;;4215401;28;20222;-76
2022/06/18 09:11:28;;;;;;;4.88;2.63;;;26.10;99.70;;;;;;4224759;27;20298;-77
2022/06/18 09:13:35;;;;;;;2.60;2.40;;;26.20;99.90;;;;;;4236330;27;20243;-76
2022/06/18 09:15:43;;;;;;;3.42;2.70;;;26.20;99.90;;;;;;4232937;27;20291;-76
2022/06/18 09:17:49;;;;;;;2.97;2.42;;;26.20;99.90;;;;;;4228723;28;20616;-76
2022/06/18 09:19:57;;;;;;;2.70;2.38;;;26.20;99.90;;;;;;4217042;28;20225;-76
2022/06/18 09:22:05;;;;;;;4.22;2.60;;;26.20;99.80;;;;;;4217257;28;20217;-76
2022/06/18 09:24:13;;;;;;;2.85;2.33;;;26.20;99.90;;;;;;4227540;27;20210;-76
2022/06/18 09:26:23;;;;;;;4.15;2.83;;;26.20;99.80;;;;;;4229120;28;20283;-76
2022/06/18 09:28:28;;;;;;;4.55;2.85;;;26.20;99.90;;;;;;4221311;28;20267;-76
2022/06/18 09:30:36;;;;;;;3.40;2.72;;;26.20;99.90;;;;;;4232018;27;20229;-76
2022/06/18 09:32:43;;;;;;;2.92;2.45;;;26.20;99.90;;;;;;4227446;28;20217;-76
2022/06/18 09:34:50;;;;;;;3.03;2.50;;;26.20;99.90;;;;;;4227425;28;20267;-76
2022/06/18 09:36:58;;;;;;;6.32;2.90;;;26.30;99.90;;;;;;4227699;27;20290;-76
2022/06/18 09:39:08;;;;;;;3.35;2.50;;;26.30;99.90;;;;;;4225776;28;20217;-76
2022/06/18 09:41:15;;;;;;;2.97;2.60;;;26.30;99.90;;;;;;4227784;28;20217;-76
2022/06/18 09:43:26;;;;;;;4.13;2.70;;;26.20;99.90;;;;;;4227679;27;20221;-76
2022/06/18 09:45:33;;;;;;;2.97;2.47;;;26.20;99.90;;;;;;4228321;28;20213;-76
2022/06/18 09:47:39;;;;;;;3.53;2.47;;;26.30;99.90;;;;;;4225627;28;20274;-76
2022/06/18 09:49:42;;;;;;;2.55;2.35;;;26.30;99.90;;;;;;4229899;27;20206;-76
2022/06/18 09:51:50;;;;;;;2.65;2.30;;;26.30;99.90;;;;;;4226925;27;20214;-76
2022/06/18 09:53:53;;;;;;;3.50;2.60;;;26.30;99.90;;;;;;4226359;28;20290;-76
2022/06/18 09:56:00;;;;;;;3.90;2.60;;;26.30;99.90;;;;;;4227457;27;20234;-76
2022/06/18 09:58:05;;;;;;;4.00;2.70;;;26.30;99.90;;;;;;4228374;28;20282;-76
2022/06/18 10:00:11;;;;;;;2.85;2.50;;;26.30;99.90;;;;;;4226659;28;20214;-76
2022/06/18 10:02:18;;;;;;;3.72;2.72;;;26.30;99.90;;;;;;4228581;28;20210;-76
2022/06/18 10:06:55;;;;;;;4.18;2.70;;;26.30;99.90;;;;;;4227779;28;20190;-76
2022/06/18 10:08:58;;;;;;;3.72;2.72;;;26.40;99.90;;;;;;4225975;28;20208;-76
2022/06/18 10:11:08;;;;;;;4.10;2.85;;;26.40;99.90;;;;;;4229413;27;20241;-76
2022/06/18 10:13:15;;;;;;;5.05;3.10;;;26.40;99.90;;;;;;4227334;28;20262;-76
2022/06/18 10:15:18;;;;;;;4.07;2.58;;;26.40;99.90;;;;;;4227730;27;20656;-76
2022/06/18 10:17:43;;;;;;;3.08;2.80;;;26.40;99.90;;;;;;4226570;27;20233;-76
2022/06/18 10:20:00;;;;;;;4.75;3.03;;;26.40;99.90;;;;;;4229066;27;20278;-76
2022/06/18 10:22:13;;;;;;;2.70;2.22;;;26.40;99.90;;;;;;4227518;28;20209;-76
2022/06/18 10:24:20;;;;;;;5.35;2.70;;;26.40;99.90;;;;;;4227433;28;20210;-76
2022/06/18 10:26:40;;;;;;;3.40;2.50;;;26.50;99.90;;;;;;4226447;28;20278;-76
2022/06/18 10:28:56;;;;;;;3.55;2.83;;;26.40;99.90;;;;;;4227447;28;20213;-76
2022/06/18 10:31:03;;;;;;;4.15;2.90;;;26.50;99.90;;;;;;4225629;28;20225;-76
2022/06/18 10:33:16;;;;;;;3.72;2.75;;;26.50;99.90;;;;;;4227203;28;21447;-76
2022/06/18 10:35:34;;;;;;;3.90;3.08;;;26.50;99.90;;;;;;4229591;27;20274;-76
2022/06/18 10:37:51;;;;;;;4.72;2.58;;;26.50;99.90;;;;;;4226713;28;20639;-76
2022/06/18 10:40:02;;;;;;;3.70;2.80;;;26.50;99.90;;;;;;4227016;27;20259;-76
2022/06/18 10:42:19;;;;;;;3.10;2.80;;;26.50;99.90;;;;;;4237695;27;20293;-76
2022/06/18 10:44:36;;;;;;;2.80;2.28;;;26.50;99.90;;;;;;4244783;27;20753;-76
2022/06/18 10:46:38;;;;;;;3.45;2.30;;;26.50;99.90;;;;;;4243946;27;20212;-76
2022/06/18 10:48:45;;;;;;;2.83;2.55;;;26.50;99.90;;;;;;4243164;27;20225;-76
2022/06/18 10:50:50;;;;;;;4.43;2.92;;;26.50;99.90;;;;;;4243529;27;20627;-76
2022/06/18 10:52:59;;;;;;;4.60;2.67;;;26.50;99.90;;;;;;4245394;27;20249;-76
2022/06/18 10:55:13;;;;;;;2.72;2.50;;;26.60;99.90;;;;;;4244940;27;20313;-76
2022/06/18 10:57:25;;;;;;;3.75;2.97;;;26.50;99.90;;;;;;4244787;27;20240;-76
2022/06/18 10:59:32;;;;;;;5.90;2.63;;;26.50;99.90;;;;;;4244507;27;20216;-76
2022/06/18 11:01:38;;;;;;;3.97;2.67;;;26.50;99.90;;;;;;4244662;27;21071;-76
2022/06/18 11:03:41;;;;;;;4.57;2.50;;;26.60;99.90;;;;;;4243956;27;20258;-76
2022/06/18 11:05:46;;;;;;;5.13;2.60;;;26.50;99.90;;;;;;4244050;27;20209;-76